sensor_id;sensor_type;location;lat;lon;timestamp;P1;durP1;ratioP1;P2;durP2;ratioP2
68256;SDS011;55069;51.568;4.656;2023-03-14T00:01:11;7.03;;;1.77;;
68256;SDS011;55069;51.568;4.656;2023-03-14T00:03:39;7.72;;;1.38;;
68256;SDS011;55069;51.568;4.656;2023-03-14T00:06:05;9.70;;;1.25;;
68256;SDS011;55069;51.568;4.656;2023-03-14T00:08:32;9.50;;;2.17;;
68256;SDS011;55069;51.568;4.656;2023-03-14T00:10:58;13.05;;;1.58;;
68256;SDS011;55069;51.568;4.656;2023-03-14T00:13:28;6.65;;;1.33;;
68256;SDS011;55069;51.568;4.656;2023-03-14T00:15:54;10.47;;;1.70;;
68256;SDS011;55069;51.568;4.656;2023-03-14T00:18:19;8.20;;;1.08;;
68256;SDS011;55069;51.568;4.656;2023-03-14T00:20:45;11.97;;;1.33;;
68256;SDS011;55069;51.568;4.656;2023-03-14T00:23:11;3.72;;;0.90;;
68256;SDS011;55069;51.568;4.656;2023-03-14T00:25:36;11.93;;;1.33;;
68256;SDS011;55069;51.568;4.656;2023-03-14T00:28:02;13.37;;;1.70;;
68256;SDS011;55069;51.568;4.656;2023-03-14T00:30:28;7.88;;;1.20;;
68256;SDS011;55069;51.568;4.656;2023-03-14T00:32:53;9.37;;;1.50;;
68256;SDS011;55069;51.568;4.656;2023-03-14T00:35:19;9.00;;;1.30;;
68256;SDS011;55069;51.568;4.656;2023-03-14T00:37:45;12.82;;;1.63;;
68256;SDS011;55069;51.568;4.656;2023-03-14T00:40:10;9.90;;;1.53;;
68256;SDS011;55069;51.568;4.656;2023-03-14T00:42:36;5.68;;;1.55;;
68256;SDS011;55069;51.568;4.656;2023-03-14T00:45:02;9.13;;;1.40;;
68256;SDS011;55069;51.568;4.656;2023-03-14T00:47:29;9.13;;;2.28;;
68256;SDS011;55069;51.568;4.656;2023-03-14T00:49:54;10.32;;;1.90;;
68256;SDS011;55069;51.568;4.656;2023-03-14T00:52:20;12.40;;;2.03;;
68256;SDS011;55069;51.568;4.656;2023-03-14T00:54:46;7.07;;;1.88;;
68256;SDS011;55069;51.568;4.656;2023-03-14T00:57:11;8.00;;;1.67;;
68256;SDS011;55069;51.568;4.656;2023-03-14T00:59:37;10.03;;;1.87;;
68256;SDS011;55069;51.568;4.656;2023-03-14T01:02:02;8.57;;;1.83;;
68256;SDS011;55069;51.568;4.656;2023-03-14T01:04:28;9.13;;;1.37;;
68256;SDS011;55069;51.568;4.656;2023-03-14T01:06:55;7.45;;;1.30;;
68256;SDS011;55069;51.568;4.656;2023-03-14T01:09:21;9.43;;;1.50;;
68256;SDS011;55069;51.568;4.656;2023-03-14T01:11:47;7.65;;;1.20;;
68256;SDS011;55069;51.568;4.656;2023-03-14T01:14:12;7.63;;;1.27;;
68256;SDS011;55069;51.568;4.656;2023-03-14T01:16:38;8.68;;;1.25;;
68256;SDS011;55069;51.568;4.656;2023-03-14T01:19:04;6.53;;;1.20;;
68256;SDS011;55069;51.568;4.656;2023-03-14T01:21:33;4.88;;;1.02;;
68256;SDS011;55069;51.568;4.656;2023-03-14T01:24:00;6.43;;;1.10;;
68256;SDS011;55069;51.568;4.656;2023-03-14T01:26:29;8.30;;;1.50;;
68256;SDS011;55069;51.568;4.656;2023-03-14T01:28:57;7.20;;;1.00;;
68256;SDS011;55069;51.568;4.656;2023-03-14T01:31:24;7.93;;;1.20;;
68256;SDS011;55069;51.568;4.656;2023-03-14T01:33:50;7.75;;;1.30;;
68256;SDS011;55069;51.568;4.656;2023-03-14T01:36:16;8.32;;;1.27;;
68256;SDS011;55069;51.568;4.656;2023-03-14T01:38:42;12.77;;;1.20;;
68256;SDS011;55069;51.568;4.656;2023-03-14T01:41:15;11.85;;;1.20;;
68256;SDS011;55069;51.568;4.656;2023-03-14T01:43:43;5.25;;;1.10;;
68256;SDS011;55069;51.568;4.656;2023-03-14T01:51:31;7.40;;;1.47;;
68256;SDS011;55069;51.568;4.656;2023-03-14T01:54:25;8.18;;;1.17;;
68256;SDS011;55069;51.568;4.656;2023-03-14T01:59:34;12.82;;;2.08;;
68256;SDS011;55069;51.568;4.656;2023-03-14T02:02:00;10.10;;;1.15;;
68256;SDS011;55069;51.568;4.656;2023-03-14T02:04:32;6.43;;;1.70;;
68256;SDS011;55069;51.568;4.656;2023-03-14T02:07:05;6.88;;;1.10;;
68256;SDS011;55069;51.568;4.656;2023-03-14T02:09:55;13.27;;;2.38;;
68256;SDS011;55069;51.568;4.656;2023-03-14T02:12:26;10.27;;;1.20;;
68256;SDS011;55069;51.568;4.656;2023-03-14T02:15:10;11.70;;;1.48;;
68256;SDS011;55069;51.568;4.656;2023-03-14T02:18:12;8.87;;;1.60;;
68256;SDS011;55069;51.568;4.656;2023-03-14T02:21:01;10.90;;;1.67;;
68256;SDS011;55069;51.568;4.656;2023-03-14T02:29:30;9.65;;;1.27;;
68256;SDS011;55069;51.568;4.656;2023-03-14T02:32:00;15.53;;;1.80;;
68256;SDS011;55069;51.568;4.656;2023-03-14T02:34:26;8.07;;;1.27;;
68256;SDS011;55069;51.568;4.656;2023-03-14T02:36:52;9.77;;;1.65;;
68256;SDS011;55069;51.568;4.656;2023-03-14T02:39:23;11.07;;;1.92;;
68256;SDS011;55069;51.568;4.656;2023-03-14T02:41:53;10.10;;;1.80;;
68256;SDS011;55069;51.568;4.656;2023-03-14T02:44:18;10.20;;;2.05;;
68256;SDS011;55069;51.568;4.656;2023-03-14T02:46:44;11.00;;;1.73;;
68256;SDS011;55069;51.568;4.656;2023-03-14T02:49:13;9.98;;;1.40;;
68256;SDS011;55069;51.568;4.656;2023-03-14T02:51:40;11.73;;;1.63;;
68256;SDS011;55069;51.568;4.656;2023-03-14T02:54:08;8.10;;;1.92;;
68256;SDS011;55069;51.568;4.656;2023-03-14T02:56:34;15.18;;;2.20;;
68256;SDS011;55069;51.568;4.656;2023-03-14T02:59:04;11.80;;;1.42;;
68256;SDS011;55069;51.568;4.656;2023-03-14T03:02:02;11.57;;;1.53;;
68256;SDS011;55069;51.568;4.656;2023-03-14T03:04:30;12.27;;;1.55;;
68256;SDS011;55069;51.568;4.656;2023-03-14T03:06:55;14.57;;;2.10;;
68256;SDS011;55069;51.568;4.656;2023-03-14T03:09:21;10.53;;;1.63;;
68256;SDS011;55069;51.568;4.656;2023-03-14T03:11:47;11.40;;;1.65;;
68256;SDS011;55069;51.568;4.656;2023-03-14T03:14:17;14.67;;;1.83;;
68256;SDS011;55069;51.568;4.656;2023-03-14T03:16:43;8.10;;;1.90;;
68256;SDS011;55069;51.568;4.656;2023-03-14T03:19:09;9.00;;;1.40;;
68256;SDS011;55069;51.568;4.656;2023-03-14T03:21:34;6.53;;;1.20;;
68256;SDS011;55069;51.568;4.656;2023-03-14T03:24:00;9.25;;;1.10;;
68256;SDS011;55069;51.568;4.656;2023-03-14T03:26:26;8.07;;;1.10;;
68256;SDS011;55069;51.568;4.656;2023-03-14T03:28:51;8.73;;;1.55;;
68256;SDS011;55069;51.568;4.656;2023-03-14T03:31:17;8.50;;;1.02;;
68256;SDS011;55069;51.568;4.656;2023-03-14T03:33:43;9.13;;;1.10;;
68256;SDS011;55069;51.568;4.656;2023-03-14T03:36:09;9.33;;;1.00;;
68256;SDS011;55069;51.568;4.656;2023-03-14T03:38:37;8.82;;;1.23;;
68256;SDS011;55069;51.568;4.656;2023-03-14T03:41:05;6.85;;;0.82;;
68256;SDS011;55069;51.568;4.656;2023-03-14T03:43:31;7.15;;;1.25;;
68256;SDS011;55069;51.568;4.656;2023-03-14T03:46:02;10.18;;;1.25;;
68256;SDS011;55069;51.568;4.656;2023-03-14T03:48:29;9.33;;;1.03;;
68256;SDS011;55069;51.568;4.656;2023-03-14T03:50:54;13.15;;;1.23;;
68256;SDS011;55069;51.568;4.656;2023-03-14T03:53:21;6.72;;;0.73;;
68256;SDS011;55069;51.568;4.656;2023-03-14T03:55:47;6.73;;;0.93;;
68256;SDS011;55069;51.568;4.656;2023-03-14T03:58:13;7.03;;;1.08;;
68256;SDS011;55069;51.568;4.656;2023-03-14T04:00:38;7.90;;;0.60;;
68256;SDS011;55069;51.568;4.656;2023-03-14T04:03:04;6.75;;;0.80;;
68256;SDS011;55069;51.568;4.656;2023-03-14T04:05:30;5.70;;;0.70;;
68256;SDS011;55069;51.568;4.656;2023-03-14T04:08:05;6.97;;;0.98;;
68256;SDS011;55069;51.568;4.656;2023-03-14T04:10:33;7.03;;;1.75;;
68256;SDS011;55069;51.568;4.656;2023-03-14T04:13:14;7.33;;;1.33;;
68256;SDS011;55069;51.568;4.656;2023-03-14T04:15:42;6.10;;;1.25;;
68256;SDS011;55069;51.568;4.656;2023-03-14T04:18:14;8.57;;;1.00;;
68256;SDS011;55069;51.568;4.656;2023-03-14T04:20:41;7.47;;;1.55;;
68256;SDS011;55069;51.568;4.656;2023-03-14T04:23:07;5.38;;;1.45;;
68256;SDS011;55069;51.568;4.656;2023-03-14T04:25:34;5.50;;;1.40;;
68256;SDS011;55069;51.568;4.656;2023-03-14T04:28:03;7.38;;;1.70;;
68256;SDS011;55069;51.568;4.656;2023-03-14T04:30:30;5.40;;;2.03;;
68256;SDS011;55069;51.568;4.656;2023-03-14T04:32:58;6.10;;;2.20;;
68256;SDS011;55069;51.568;4.656;2023-03-14T04:35:25;8.20;;;2.40;;
68256;SDS011;55069;51.568;4.656;2023-03-14T04:37:56;7.03;;;2.23;;
68256;SDS011;55069;51.568;4.656;2023-03-14T04:40:23;7.22;;;2.65;;
68256;SDS011;55069;51.568;4.656;2023-03-14T04:42:52;7.28;;;2.95;;
68256;SDS011;55069;51.568;4.656;2023-03-14T04:45:19;7.18;;;2.38;;
68256;SDS011;55069;51.568;4.656;2023-03-14T04:47:45;8.40;;;2.90;;
68256;SDS011;55069;51.568;4.656;2023-03-14T04:50:14;7.27;;;2.37;;
68256;SDS011;55069;51.568;4.656;2023-03-14T04:52:40;5.10;;;2.38;;
68256;SDS011;55069;51.568;4.656;2023-03-14T04:55:06;8.98;;;3.17;;
68256;SDS011;55069;51.568;4.656;2023-03-14T04:57:32;11.52;;;3.75;;
68256;SDS011;55069;51.568;4.656;2023-03-14T04:59:58;8.40;;;3.15;;
68256;SDS011;55069;51.568;4.656;2023-03-14T05:02:42;8.98;;;3.50;;
68256;SDS011;55069;51.568;4.656;2023-03-14T05:05:19;9.90;;;3.47;;
68256;SDS011;55069;51.568;4.656;2023-03-14T05:08:00;7.05;;;3.70;;
68256;SDS011;55069;51.568;4.656;2023-03-14T05:10:44;6.80;;;3.33;;
68256;SDS011;55069;51.568;4.656;2023-03-14T05:13:34;7.65;;;3.22;;
68256;SDS011;55069;51.568;4.656;2023-03-14T05:16:18;8.45;;;3.55;;
68256;SDS011;55069;51.568;4.656;2023-03-14T05:19:04;6.60;;;3.22;;
68256;SDS011;55069;51.568;4.656;2023-03-14T05:21:32;9.70;;;3.72;;
68256;SDS011;55069;51.568;4.656;2023-03-14T05:24:13;6.63;;;3.40;;
68256;SDS011;55069;51.568;4.656;2023-03-14T05:27:06;7.88;;;3.67;;
68256;SDS011;55069;51.568;4.656;2023-03-14T05:30:07;7.78;;;3.33;;
68256;SDS011;55069;51.568;4.656;2023-03-14T05:32:47;9.30;;;3.50;;
68256;SDS011;55069;51.568;4.656;2023-03-14T05:35:36;9.82;;;3.47;;
68256;SDS011;55069;51.568;4.656;2023-03-14T05:38:24;11.60;;;3.50;;
68256;SDS011;55069;51.568;4.656;2023-03-14T05:41:08;9.07;;;3.72;;
68256;SDS011;55069;51.568;4.656;2023-03-14T05:43:59;12.27;;;4.03;;
68256;SDS011;55069;51.568;4.656;2023-03-14T05:46:39;9.45;;;4.38;;
68256;SDS011;55069;51.568;4.656;2023-03-14T05:49:30;8.05;;;4.50;;
68256;SDS011;55069;51.568;4.656;2023-03-14T05:51:56;15.17;;;4.73;;
68256;SDS011;55069;51.568;4.656;2023-03-14T05:54:47;14.57;;;4.97;;
68256;SDS011;55069;51.568;4.656;2023-03-14T05:57:31;13.57;;;5.40;;
68256;SDS011;55069;51.568;4.656;2023-03-14T06:00:15;15.70;;;5.80;;
68256;SDS011;55069;51.568;4.656;2023-03-14T06:02:54;11.52;;;5.13;;
68256;SDS011;55069;51.568;4.656;2023-03-14T06:05:26;9.82;;;5.82;;
68256;SDS011;55069;51.568;4.656;2023-03-14T06:07:57;15.38;;;6.80;;
68256;SDS011;55069;51.568;4.656;2023-03-14T06:10:23;9.80;;;5.90;;
68256;SDS011;55069;51.568;4.656;2023-03-14T06:12:49;13.77;;;6.88;;
68256;SDS011;55069;51.568;4.656;2023-03-14T06:15:14;15.07;;;7.10;;
68256;SDS011;55069;51.568;4.656;2023-03-14T06:17:42;15.00;;;7.90;;
68256;SDS011;55069;51.568;4.656;2023-03-14T06:20:10;13.05;;;7.95;;
68256;SDS011;55069;51.568;4.656;2023-03-14T06:22:36;14.27;;;8.17;;
68256;SDS011;55069;51.568;4.656;2023-03-14T06:25:04;14.43;;;8.88;;
68256;SDS011;55069;51.568;4.656;2023-03-14T06:27:30;13.48;;;8.13;;
68256;SDS011;55069;51.568;4.656;2023-03-14T06:29:57;4.43;;;2.80;;
68256;SDS011;55069;51.568;4.656;2023-03-14T06:32:23;2.67;;;0.83;;
68256;SDS011;55069;51.568;4.656;2023-03-14T06:34:52;4.88;;;0.60;;
68256;SDS011;55069;51.568;4.656;2023-03-14T06:37:18;1.77;;;0.55;;
68256;SDS011;55069;51.568;4.656;2023-03-14T06:39:45;1.98;;;0.70;;
68256;SDS011;55069;51.568;4.656;2023-03-14T06:42:18;6.57;;;0.70;;
68256;SDS011;55069;51.568;4.656;2023-03-14T06:44:44;3.63;;;1.30;;
68256;SDS011;55069;51.568;4.656;2023-03-14T06:47:10;6.40;;;1.17;;
68256;SDS011;55069;51.568;4.656;2023-03-14T06:49:40;8.02;;;0.73;;
68256;SDS011;55069;51.568;4.656;2023-03-14T06:52:06;7.20;;;1.27;;
68256;SDS011;55069;51.568;4.656;2023-03-14T06:54:31;4.72;;;1.15;;
68256;SDS011;55069;51.568;4.656;2023-03-14T06:56:57;8.45;;;1.80;;
68256;SDS011;55069;51.568;4.656;2023-03-14T06:59:23;7.88;;;2.20;;
68256;SDS011;55069;51.568;4.656;2023-03-14T07:01:48;4.43;;;1.50;;
68256;SDS011;55069;51.568;4.656;2023-03-14T07:04:16;4.68;;;1.48;;
68256;SDS011;55069;51.568;4.656;2023-03-14T07:06:46;5.30;;;1.42;;
68256;SDS011;55069;51.568;4.656;2023-03-14T07:09:13;5.70;;;1.27;;
68256;SDS011;55069;51.568;4.656;2023-03-14T07:11:44;4.53;;;0.82;;
68256;SDS011;55069;51.568;4.656;2023-03-14T07:14:10;8.23;;;1.30;;
68256;SDS011;55069;51.568;4.656;2023-03-14T07:16:35;4.43;;;1.15;;
68256;SDS011;55069;51.568;4.656;2023-03-14T07:19:01;5.17;;;0.67;;
68256;SDS011;55069;51.568;4.656;2023-03-14T07:21:28;4.78;;;0.75;;
68256;SDS011;55069;51.568;4.656;2023-03-14T07:23:53;10.40;;;0.77;;
68256;SDS011;55069;51.568;4.656;2023-03-14T07:26:19;4.65;;;0.90;;
68256;SDS011;55069;51.568;4.656;2023-03-14T07:28:49;7.00;;;0.98;;
68256;SDS011;55069;51.568;4.656;2023-03-14T07:31:17;8.00;;;1.20;;
68256;SDS011;55069;51.568;4.656;2023-03-14T07:33:43;4.43;;;1.00;;
68256;SDS011;55069;51.568;4.656;2023-03-14T07:36:08;10.32;;;1.92;;
68256;SDS011;55069;51.568;4.656;2023-03-14T07:38:34;7.60;;;0.87;;
68256;SDS011;55069;51.568;4.656;2023-03-14T07:41:26;4.82;;;1.23;;
68256;SDS011;55069;51.568;4.656;2023-03-14T07:44:21;4.88;;;1.15;;
68256;SDS011;55069;51.568;4.656;2023-03-14T07:46:46;4.57;;;1.23;;
68256;SDS011;55069;51.568;4.656;2023-03-14T07:49:12;7.33;;;1.20;;
68256;SDS011;55069;51.568;4.656;2023-03-14T07:51:37;8.55;;;0.90;;
68256;SDS011;55069;51.568;4.656;2023-03-14T07:54:03;11.07;;;1.13;;
68256;SDS011;55069;51.568;4.656;2023-03-14T07:56:29;8.93;;;1.63;;
68256;SDS011;55069;51.568;4.656;2023-03-14T07:58:54;8.48;;;1.50;;
68256;SDS011;55069;51.568;4.656;2023-03-14T08:01:20;11.30;;;1.43;;
68256;SDS011;55069;51.568;4.656;2023-03-14T08:03:45;5.70;;;1.08;;
68256;SDS011;55069;51.568;4.656;2023-03-14T08:06:11;6.43;;;0.70;;
68256;SDS011;55069;51.568;4.656;2023-03-14T08:08:37;6.37;;;0.87;;
68256;SDS011;55069;51.568;4.656;2023-03-14T08:11:06;7.25;;;0.65;;
68256;SDS011;55069;51.568;4.656;2023-03-14T08:13:36;3.53;;;0.57;;
68256;SDS011;55069;51.568;4.656;2023-03-14T08:16:02;5.20;;;0.90;;
68256;SDS011;55069;51.568;4.656;2023-03-14T08:18:29;4.00;;;0.52;;
68256;SDS011;55069;51.568;4.656;2023-03-14T08:20:55;7.25;;;1.10;;
68256;SDS011;55069;51.568;4.656;2023-03-14T08:23:20;8.60;;;1.05;;
68256;SDS011;55069;51.568;4.656;2023-03-14T08:25:48;6.30;;;0.60;;
68256;SDS011;55069;51.568;4.656;2023-03-14T08:28:16;8.68;;;0.68;;
68256;SDS011;55069;51.568;4.656;2023-03-14T08:30:42;4.68;;;0.60;;
68256;SDS011;55069;51.568;4.656;2023-03-14T08:33:07;5.27;;;0.60;;
68256;SDS011;55069;51.568;4.656;2023-03-14T08:35:33;4.30;;;0.80;;
68256;SDS011;55069;51.568;4.656;2023-03-14T08:37:58;2.20;;;0.77;;
68256;SDS011;55069;51.568;4.656;2023-03-14T08:40:24;3.50;;;0.60;;
68256;SDS011;55069;51.568;4.656;2023-03-14T08:42:50;6.50;;;0.60;;
68256;SDS011;55069;51.568;4.656;2023-03-14T08:45:15;3.03;;;0.68;;
68256;SDS011;55069;51.568;4.656;2023-03-14T08:47:42;5.63;;;0.93;;
68256;SDS011;55069;51.568;4.656;2023-03-14T08:50:09;7.60;;;0.63;;
68256;SDS011;55069;51.568;4.656;2023-03-14T08:52:35;5.85;;;0.60;;
68256;SDS011;55069;51.568;4.656;2023-03-14T08:55:03;5.60;;;0.93;;
68256;SDS011;55069;51.568;4.656;2023-03-14T08:57:29;9.73;;;1.13;;
68256;SDS011;55069;51.568;4.656;2023-03-14T08:59:55;10.53;;;1.03;;
68256;SDS011;55069;51.568;4.656;2023-03-14T09:02:22;7.90;;;1.13;;
68256;SDS011;55069;51.568;4.656;2023-03-14T09:04:52;6.32;;;0.73;;
68256;SDS011;55069;51.568;4.656;2023-03-14T09:07:18;7.93;;;1.10;;
68256;SDS011;55069;51.568;4.656;2023-03-14T09:09:44;6.13;;;0.98;;
68256;SDS011;55069;51.568;4.656;2023-03-14T09:12:10;5.40;;;0.50;;
68256;SDS011;55069;51.568;4.656;2023-03-14T09:14:36;3.00;;;0.50;;
68256;SDS011;55069;51.568;4.656;2023-03-14T09:17:03;4.77;;;1.10;;
68256;SDS011;55069;51.568;4.656;2023-03-14T09:19:29;3.17;;;0.70;;
68256;SDS011;55069;51.568;4.656;2023-03-14T09:21:55;3.25;;;0.60;;
68256;SDS011;55069;51.568;4.656;2023-03-14T09:24:21;4.97;;;0.60;;
68256;SDS011;55069;51.568;4.656;2023-03-14T09:26:47;2.25;;;0.52;;
68256;SDS011;55069;51.568;4.656;2023-03-14T09:29:12;7.13;;;0.90;;
68256;SDS011;55069;51.568;4.656;2023-03-14T09:31:38;3.45;;;1.00;;
68256;SDS011;55069;51.568;4.656;2023-03-14T09:34:03;5.70;;;0.80;;
68256;SDS011;55069;51.568;4.656;2023-03-14T09:36:29;5.60;;;1.00;;
68256;SDS011;55069;51.568;4.656;2023-03-14T09:38:55;4.50;;;0.50;;
68256;SDS011;55069;51.568;4.656;2023-03-14T09:41:21;2.80;;;0.50;;
68256;SDS011;55069;51.568;4.656;2023-03-14T09:44:01;5.30;;;0.50;;
68256;SDS011;55069;51.568;4.656;2023-03-14T09:46:30;9.00;;;0.80;;
68256;SDS011;55069;51.568;4.656;2023-03-14T09:48:59;6.57;;;1.10;;
68256;SDS011;55069;51.568;4.656;2023-03-14T09:51:25;8.53;;;1.00;;
68256;SDS011;55069;51.568;4.656;2023-03-14T09:53:51;9.15;;;0.93;;
68256;SDS011;55069;51.568;4.656;2023-03-14T09:56:21;9.75;;;0.93;;
68256;SDS011;55069;51.568;4.656;2023-03-14T09:58:55;2.97;;;0.70;;
68256;SDS011;55069;51.568;4.656;2023-03-14T10:01:26;3.63;;;0.88;;
68256;SDS011;55069;51.568;4.656;2023-03-14T10:03:57;12.10;;;1.23;;
68256;SDS011;55069;51.568;4.656;2023-03-14T10:06:27;11.50;;;1.40;;
68256;SDS011;55069;51.568;4.656;2023-03-14T10:08:54;8.32;;;1.25;;
68256;SDS011;55069;51.568;4.656;2023-03-14T10:11:22;12.80;;;2.40;;
68256;SDS011;55069;51.568;4.656;2023-03-14T10:16:53;14.50;;;1.42;;
68256;SDS011;55069;51.568;4.656;2023-03-14T10:19:19;5.10;;;0.77;;
68256;SDS011;55069;51.568;4.656;2023-03-14T10:21:50;12.13;;;1.38;;
68256;SDS011;55069;51.568;4.656;2023-03-14T10:26:52;21.67;;;1.95;;
68256;SDS011;55069;51.568;4.656;2023-03-14T10:29:19;12.25;;;0.98;;
68256;SDS011;55069;51.568;4.656;2023-03-14T10:34:24;11.07;;;1.08;;
68256;SDS011;55069;51.568;4.656;2023-03-14T10:36:58;14.33;;;1.90;;
68256;SDS011;55069;51.568;4.656;2023-03-14T10:42:26;18.20;;;1.85;;
68256;SDS011;55069;51.568;4.656;2023-03-14T10:45:00;6.43;;;1.08;;
68256;SDS011;55069;51.568;4.656;2023-03-14T10:47:28;15.60;;;1.80;;
68256;SDS011;55069;51.568;4.656;2023-03-14T10:49:55;10.50;;;1.17;;
68256;SDS011;55069;51.568;4.656;2023-03-14T10:52:28;8.30;;;1.33;;
68256;SDS011;55069;51.568;4.656;2023-03-14T10:54:56;16.42;;;1.83;;
68256;SDS011;55069;51.568;4.656;2023-03-14T10:57:24;10.63;;;1.60;;
68256;SDS011;55069;51.568;4.656;2023-03-14T10:59:50;14.02;;;1.77;;
68256;SDS011;55069;51.568;4.656;2023-03-14T11:07:42;14.13;;;2.00;;
68256;SDS011;55069;51.568;4.656;2023-03-14T11:10:14;18.35;;;2.00;;
68256;SDS011;55069;51.568;4.656;2023-03-14T11:13:17;15.65;;;1.92;;
68256;SDS011;55069;51.568;4.656;2023-03-14T11:21:32;17.67;;;1.73;;
68256;SDS011;55069;51.568;4.656;2023-03-14T11:32:19;15.82;;;2.30;;
68256;SDS011;55069;51.568;4.656;2023-03-14T11:34:53;15.30;;;1.80;;
68256;SDS011;55069;51.568;4.656;2023-03-14T11:37:28;19.98;;;1.92;;
68256;SDS011;55069;51.568;4.656;2023-03-14T11:42:48;26.73;;;3.50;;
68256;SDS011;55069;51.568;4.656;2023-03-14T11:45:28;21.92;;;3.78;;
68256;SDS011;55069;51.568;4.656;2023-03-14T11:48:14;20.35;;;2.70;;
68256;SDS011;55069;51.568;4.656;2023-03-14T11:50:59;24.42;;;2.85;;
68256;SDS011;55069;51.568;4.656;2023-03-14T11:56:22;22.97;;;2.77;;
68256;SDS011;55069;51.568;4.656;2023-03-14T11:58:55;22.00;;;2.25;;
68256;SDS011;55069;51.568;4.656;2023-03-14T12:01:27;13.57;;;1.30;;
68256;SDS011;55069;51.568;4.656;2023-03-14T12:04:03;20.33;;;2.13;;
68256;SDS011;55069;51.568;4.656;2023-03-14T12:06:48;16.58;;;2.20;;
68256;SDS011;55069;51.568;4.656;2023-03-14T12:09:15;12.13;;;1.60;;
68256;SDS011;55069;51.568;4.656;2023-03-14T12:11:50;18.98;;;2.15;;
68256;SDS011;55069;51.568;4.656;2023-03-14T12:14:32;30.17;;;3.45;;
68256;SDS011;55069;51.568;4.656;2023-03-14T12:19:35;12.70;;;1.85;;
68256;SDS011;55069;51.568;4.656;2023-03-14T12:25:00;15.10;;;1.60;;
68256;SDS011;55069;51.568;4.656;2023-03-14T12:33:11;10.48;;;1.80;;
68256;SDS011;55069;51.568;4.656;2023-03-14T12:35:52;4.87;;;0.77;;
68256;SDS011;55069;51.568;4.656;2023-03-14T12:38:27;9.57;;;1.25;;
68256;SDS011;55069;51.568;4.656;2023-03-14T12:41:17;8.63;;;1.10;;
68256;SDS011;55069;51.568;4.656;2023-03-14T12:49:44;10.97;;;1.40;;
68256;SDS011;55069;51.568;4.656;2023-03-14T12:52:15;7.82;;;1.00;;
68256;SDS011;55069;51.568;4.656;2023-03-14T12:57:40;9.00;;;1.67;;
68256;SDS011;55069;51.568;4.656;2023-03-14T13:00:19;7.35;;;1.13;;
68256;SDS011;55069;51.568;4.656;2023-03-14T13:02:46;10.40;;;1.30;;
68256;SDS011;55069;51.568;4.656;2023-03-14T13:05:21;9.52;;;1.33;;
68256;SDS011;55069;51.568;4.656;2023-03-14T13:10:22;13.40;;;1.53;;
68256;SDS011;55069;51.568;4.656;2023-03-14T13:12:54;5.35;;;1.60;;
68256;SDS011;55069;51.568;4.656;2023-03-14T13:17:52;4.38;;;0.68;;
68256;SDS011;55069;51.568;4.656;2023-03-14T13:20:55;10.37;;;1.37;;
68256;SDS011;55069;51.568;4.656;2023-03-14T13:23:25;11.23;;;1.38;;
68256;SDS011;55069;51.568;4.656;2023-03-14T13:25:52;12.52;;;2.10;;
68256;SDS011;55069;51.568;4.656;2023-03-14T13:28:18;8.43;;;1.38;;
68256;SDS011;55069;51.568;4.656;2023-03-14T13:30:45;9.27;;;1.30;;
68256;SDS011;55069;51.568;4.656;2023-03-14T13:33:17;4.32;;;0.80;;
68256;SDS011;55069;51.568;4.656;2023-03-14T13:35:47;4.72;;;1.02;;
68256;SDS011;55069;51.568;4.656;2023-03-14T13:38:23;14.07;;;1.42;;
68256;SDS011;55069;51.568;4.656;2023-03-14T13:40:51;9.45;;;1.10;;
68256;SDS011;55069;51.568;4.656;2023-03-14T13:43:20;7.47;;;1.33;;
68256;SDS011;55069;51.568;4.656;2023-03-14T13:45:51;7.72;;;1.17;;
68256;SDS011;55069;51.568;4.656;2023-03-14T13:48:19;7.80;;;1.38;;
68256;SDS011;55069;51.568;4.656;2023-03-14T13:50:49;7.72;;;1.17;;
68256;SDS011;55069;51.568;4.656;2023-03-14T13:53:17;8.50;;;1.35;;
68256;SDS011;55069;51.568;4.656;2023-03-14T13:55:43;17.57;;;1.10;;
68256;SDS011;55069;51.568;4.656;2023-03-14T13:58:31;8.00;;;1.13;;
68256;SDS011;55069;51.568;4.656;2023-03-14T14:03:27;7.30;;;1.10;;
68256;SDS011;55069;51.568;4.656;2023-03-14T14:05:56;9.60;;;1.00;;
68256;SDS011;55069;51.568;4.656;2023-03-14T14:08:23;13.65;;;1.30;;
68256;SDS011;55069;51.568;4.656;2023-03-14T14:10:49;11.35;;;1.05;;
68256;SDS011;55069;51.568;4.656;2023-03-14T14:13:16;9.88;;;1.13;;
68256;SDS011;55069;51.568;4.656;2023-03-14T14:15:47;5.43;;;1.00;;
68256;SDS011;55069;51.568;4.656;2023-03-14T14:18:17;12.32;;;1.10;;
68256;SDS011;55069;51.568;4.656;2023-03-14T14:20:46;7.05;;;1.30;;
68256;SDS011;55069;51.568;4.656;2023-03-14T14:23:19;6.70;;;1.00;;
68256;SDS011;55069;51.568;4.656;2023-03-14T14:25:52;7.22;;;1.13;;
68256;SDS011;55069;51.568;4.656;2023-03-14T14:28:23;8.10;;;1.23;;
68256;SDS011;55069;51.568;4.656;2023-03-14T14:33:55;14.20;;;1.20;;
68256;SDS011;55069;51.568;4.656;2023-03-14T14:36:27;8.77;;;1.23;;
68256;SDS011;55069;51.568;4.656;2023-03-14T14:41:35;10.50;;;0.90;;
68256;SDS011;55069;51.568;4.656;2023-03-14T14:44:05;9.63;;;0.90;;
68256;SDS011;55069;51.568;4.656;2023-03-14T14:46:32;10.80;;;1.15;;
68256;SDS011;55069;51.568;4.656;2023-03-14T14:49:05;8.27;;;1.02;;
68256;SDS011;55069;51.568;4.656;2023-03-14T14:51:41;7.35;;;1.50;;
68256;SDS011;55069;51.568;4.656;2023-03-14T14:54:10;9.83;;;1.37;;
68256;SDS011;55069;51.568;4.656;2023-03-14T14:56:37;4.78;;;0.70;;
68256;SDS011;55069;51.568;4.656;2023-03-14T14:59:04;4.05;;;0.73;;
68256;SDS011;55069;51.568;4.656;2023-03-14T15:01:38;9.73;;;1.10;;
68256;SDS011;55069;51.568;4.656;2023-03-14T15:04:09;7.53;;;0.95;;
68256;SDS011;55069;51.568;4.656;2023-03-14T15:06:38;13.53;;;1.73;;
68256;SDS011;55069;51.568;4.656;2023-03-14T15:09:08;10.27;;;1.27;;
68256;SDS011;55069;51.568;4.656;2023-03-14T15:11:36;7.10;;;0.77;;
68256;SDS011;55069;51.568;4.656;2023-03-14T15:14:02;14.07;;;1.33;;
68256;SDS011;55069;51.568;4.656;2023-03-14T15:16:29;7.50;;;1.27;;
68256;SDS011;55069;51.568;4.656;2023-03-14T15:19:00;13.20;;;1.13;;
68256;SDS011;55069;51.568;4.656;2023-03-14T15:21:30;11.13;;;1.35;;
68256;SDS011;55069;51.568;4.656;2023-03-14T15:23:57;9.18;;;0.88;;
68256;SDS011;55069;51.568;4.656;2023-03-14T15:26:24;9.75;;;1.33;;
68256;SDS011;55069;51.568;4.656;2023-03-14T15:28:51;9.87;;;1.40;;
68256;SDS011;55069;51.568;4.656;2023-03-14T15:31:18;9.98;;;1.20;;
68256;SDS011;55069;51.568;4.656;2023-03-14T15:33:45;5.32;;;0.80;;
68256;SDS011;55069;51.568;4.656;2023-03-14T15:36:22;8.90;;;0.77;;
68256;SDS011;55069;51.568;4.656;2023-03-14T15:38:54;13.88;;;1.10;;
68256;SDS011;55069;51.568;4.656;2023-03-14T15:41:21;9.27;;;0.93;;
68256;SDS011;55069;51.568;4.656;2023-03-14T15:43:48;7.68;;;1.35;;
68256;SDS011;55069;51.568;4.656;2023-03-14T15:46:14;9.15;;;1.20;;
68256;SDS011;55069;51.568;4.656;2023-03-14T15:48:40;5.70;;;1.15;;
68256;SDS011;55069;51.568;4.656;2023-03-14T15:51:06;11.83;;;1.20;;
68256;SDS011;55069;51.568;4.656;2023-03-14T15:53:32;9.30;;;0.93;;
68256;SDS011;55069;51.568;4.656;2023-03-14T15:55:57;20.17;;;1.73;;
68256;SDS011;55069;51.568;4.656;2023-03-14T15:58:23;16.67;;;2.83;;
68256;SDS011;55069;51.568;4.656;2023-03-14T16:00:49;13.02;;;1.48;;
68256;SDS011;55069;51.568;4.656;2023-03-14T16:03:15;9.23;;;0.80;;
68256;SDS011;55069;51.568;4.656;2023-03-14T16:05:42;10.68;;;1.15;;
68256;SDS011;55069;51.568;4.656;2023-03-14T16:08:07;10.00;;;1.20;;
68256;SDS011;55069;51.568;4.656;2023-03-14T16:10:33;10.10;;;1.20;;
68256;SDS011;55069;51.568;4.656;2023-03-14T16:12:59;11.57;;;1.33;;
68256;SDS011;55069;51.568;4.656;2023-03-14T16:15:25;11.30;;;1.47;;
68256;SDS011;55069;51.568;4.656;2023-03-14T16:17:52;12.68;;;1.45;;
68256;SDS011;55069;51.568;4.656;2023-03-14T16:20:19;10.10;;;1.00;;
68256;SDS011;55069;51.568;4.656;2023-03-14T16:22:46;6.53;;;1.25;;